Lamoine, Maine
Current Conditions -  °F | °C
As of 4:35 AM on Thursday 27 Nov 2014 (Local Time) from KBHB Reporting Station
Overcast Overcast  
Wind Chill: 19°   Ceiling: 800
Heat Index: 30°   Visibility: 1.7mi
Dew Point: 28°   Wind: 15mph
Humidity: 93%   Direction: 360°N
Pressure: 29.6"   Gusts: 28mph
Location:  44.6651°N, 68.3944°W
Report Text: KBHB 270935Z AUTO 36013G24KT 1 3/4SM OVC008 M01/M02 A2960 RMK AO1 P0001
Loading
Personal Weather Stations






























Interactive Weather Map New forecast layout! Learn more

10-Day Weather Forecast

Advertisements
Track Severe Weather on mobile